Time;durP1;ratioP1;P1;durP2;ratioP2;P2;SDS_P1;SDS_P2;PMS_P1;PMS_P2;Temp;Humidity;BMP_temperature;BMP_pressure;BME280_temperature;BME280_humidity;BME280_pressure;Samples;Min_cycle;Max_cycle;Signal;HPM_P1;HPM_P2
2022/04/12 00:00:28;;;;;;;3.87;2.17;;;5.20;1.00;;;;;;5074876;28;20916;-81
2022/04/12 00:02:53;;;;;;;3.17;1.27;;;5.20;1.00;;;;;;5074850;28;20173;-81
2022/04/12 00:05:19;;;;;;;1.60;1.00;;;5.30;1.00;;;;;;5074563;28;20774;-81
2022/04/12 00:07:44;;;;;;;2.57;1.53;;;5.30;1.00;;;;;;5074462;28;20575;-82
2022/04/12 00:10:13;;;;;;;3.47;1.40;;;5.30;1.00;;;;;;5074619;28;20620;-81
2022/04/12 00:12:39;;;;;;;3.33;2.50;;;5.20;1.00;;;;;;5074127;28;20239;-79
2022/04/12 00:15:07;;;;;;;4.53;1.97;;;5.20;1.00;;;;;;5073349;28;20422;-81
2022/04/12 00:20:18;;;;;;;6.10;1.97;;;5.20;1.00;;;;;;5074908;28;20455;-80
2022/04/12 00:22:45;;;;;;;3.10;1.90;;;5.20;1.00;;;;;;5074361;28;20418;-81
2022/04/12 00:25:11;;;;;;;3.80;1.87;;;5.20;1.00;;;;;;5074313;28;20916;-81
2022/04/12 00:27:41;;;;;;;4.80;1.60;;;5.30;1.00;;;;;;5072470;28;20457;-79
2022/04/12 00:30:08;;;;;;;4.30;2.37;;;5.30;1.00;;;;;;5073181;28;20423;-79
2022/04/12 00:32:35;;;;;;;5.63;2.20;;;5.20;1.00;;;;;;5072744;28;20975;-82
2022/04/12 00:35:00;;;;;;;3.90;1.10;;;5.20;1.00;;;;;;5074234;28;20400;-80
2022/04/12 00:37:26;;;;;;;3.50;1.30;;;5.20;1.00;;;;;;5074192;28;20942;-78
2022/04/12 00:39:52;;;;;;;6.80;1.60;;;5.10;1.00;;;;;;5072987;28;20415;-84
2022/04/12 00:42:18;;;;;;;5.77;2.67;;;5.10;1.00;;;;;;5073886;28;20217;-79
2022/04/12 00:44:44;;;;;;;5.40;2.03;;;5.10;1.00;;;;;;5074027;28;20412;-80
2022/04/12 00:47:09;;;;;;;2.77;1.90;;;5.00;1.00;;;;;;5074042;28;20176;-83
2022/04/12 00:49:35;;;;;;;9.10;2.53;;;4.90;1.00;;;;;;5073923;28;20183;-83
2022/04/12 00:52:00;;;;;;;6.70;1.33;;;5.00;1.00;;;;;;5073831;28;20599;-84
2022/04/12 00:54:28;;;;;;;3.40;1.40;;;4.90;1.00;;;;;;5073827;28;20548;-80
2022/04/12 00:56:57;;;;;;;7.33;1.77;;;4.90;1.00;;;;;;5073422;28;20173;-84
2022/04/12 00:59:23;;;;;;;1.93;1.30;;;4.90;1.00;;;;;;5073646;28;20426;-80
2022/04/12 01:01:49;;;;;;;6.63;2.17;;;5.00;1.00;;;;;;5073678;28;20439;-84
2022/04/12 01:04:15;;;;;;;3.00;2.00;;;4.90;1.00;;;;;;5073660;28;20484;-83
2022/04/12 01:06:41;;;;;;;2.10;1.23;;;4.90;1.00;;;;;;5073300;28;20796;-83
2022/04/12 01:09:07;;;;;;;3.73;1.30;;;4.90;1.00;;;;;;5073578;28;20425;-81
2022/04/12 01:11:34;;;;;;;3.50;1.70;;;4.90;1.00;;;;;;5073169;28;20204;-84
2022/04/12 01:14:00;;;;;;;6.07;2.00;;;4.90;1.00;;;;;;5073402;28;20911;-80
2022/04/12 01:16:29;;;;;;;5.00;1.43;;;5.00;1.00;;;;;;5073463;28;20399;-80
2022/04/12 01:18:54;;;;;;;3.93;1.53;;;4.90;1.00;;;;;;5073457;28;20415;-84
2022/04/12 01:21:20;;;;;;;3.13;0.97;;;4.90;1.00;;;;;;5073370;28;20451;-83
2022/04/12 01:24:05;;;;;;;4.27;2.20;;;5.00;1.00;;;;;;5073281;28;20176;-80
2022/04/12 01:26:32;;;;;;;4.83;1.77;;;5.10;1.00;;;;;;5072999;28;20513;-81
2022/04/12 01:28:58;;;;;;;2.50;1.80;;;5.10;1.00;;;;;;5073193;28;20447;-81
2022/04/12 01:31:25;;;;;;;4.83;1.87;;;5.00;1.00;;;;;;5073023;28;21017;-81
2022/04/12 01:33:51;;;;;;;2.50;1.10;;;5.00;1.00;;;;;;5073347;28;20423;-84
2022/04/12 01:36:16;;;;;;;3.17;1.93;;;4.90;1.00;;;;;;5073182;28;20552;-84
2022/04/12 01:38:42;;;;;;;5.90;1.90;;;5.00;1.00;;;;;;5072653;28;20415;-81
2022/04/12 01:41:07;;;;;;;3.03;1.53;;;5.00;1.00;;;;;;5073165;28;20165;-80
2022/04/12 01:43:33;;;;;;;3.53;1.83;;;5.00;1.00;;;;;;5072884;28;20637;-80
2022/04/12 01:45:58;;;;;;;3.40;1.70;;;5.10;1.00;;;;;;5071814;28;20540;-84
2022/04/12 01:48:25;;;;;;;2.83;1.80;;;5.20;1.00;;;;;;5073223;28;20169;-84
2022/04/12 01:50:52;;;;;;;6.30;1.83;;;5.10;1.00;;;;;;5073055;28;20173;-81
2022/04/12 01:53:17;;;;;;;7.30;1.80;;;5.10;1.00;;;;;;5072928;28;20898;-84
2022/04/12 01:55:43;;;;;;;5.20;1.50;;;5.10;1.00;;;;;;5072985;28;20436;-85
2022/04/12 01:58:08;;;;;;;5.80;2.17;;;5.10;1.00;;;;;;5072539;28;20248;-85
2022/04/12 02:00:36;;;;;;;2.40;1.93;;;5.10;1.00;;;;;;5072754;28;20240;-83
2022/04/12 02:03:04;;;;;;;3.53;1.97;;;5.10;1.00;;;;;;5072751;28;20170;-84
2022/04/12 02:05:30;;;;;;;4.10;1.80;;;5.10;1.00;;;;;;5071435;28;20797;-82
2022/04/12 02:07:56;;;;;;;3.50;1.93;;;5.10;1.00;;;;;;5072650;28;20463;-81
2022/04/12 02:10:22;;;;;;;3.67;1.63;;;5.10;1.00;;;;;;5072705;28;20419;-81
2022/04/12 02:12:49;;;;;;;2.47;1.90;;;5.10;1.00;;;;;;5072329;28;20239;-83
2022/04/12 02:15:14;;;;;;;4.87;1.73;;;5.00;1.00;;;;;;5072768;28;20492;-81
2022/04/12 02:17:40;;;;;;;3.80;2.03;;;5.10;1.00;;;;;;5072686;28;20879;-82
2022/04/12 02:20:06;;;;;;;2.80;1.47;;;5.10;1.00;;;;;;5072639;28;20173;-80
2022/04/12 02:22:31;;;;;;;4.43;2.00;;;5.10;1.00;;;;;;5072807;28;20181;-82
2022/04/12 02:24:57;;;;;;;3.73;2.00;;;5.00;1.00;;;;;;5071212;28;20511;-82
2022/04/12 02:27:22;;;;;;;6.97;2.00;;;5.00;1.00;;;;;;5072171;28;20172;-81
2022/04/12 02:29:48;;;;;;;3.00;1.73;;;5.00;1.00;;;;;;5072482;28;20169;-82
2022/04/12 02:32:13;;;;;;;6.70;2.47;;;5.00;1.00;;;;;;5072103;28;20205;-81
2022/04/12 02:34:39;;;;;;;6.73;1.73;;;5.00;1.00;;;;;;5072139;28;20169;-81
2022/04/12 02:37:05;;;;;;;2.93;1.80;;;5.00;1.00;;;;;;5070508;28;20276;-82
2022/04/12 02:39:30;;;;;;;3.20;1.70;;;4.90;1.00;;;;;;5070654;28;20545;-81
2022/04/12 02:41:56;;;;;;;2.83;1.80;;;4.90;1.00;;;;;;5071334;28;20206;-81
2022/04/12 02:44:21;;;;;;;2.57;1.50;;;4.80;1.00;;;;;;5072453;28;20251;-82
2022/04/12 02:46:47;;;;;;;2.30;1.60;;;4.90;1.00;;;;;;5072414;28;20177;-81
2022/04/12 02:49:13;;;;;;;2.40;1.77;;;4.90;1.00;;;;;;5070995;28;20183;-82
2022/04/12 02:51:38;;;;;;;3.57;2.03;;;4.90;1.00;;;;;;5075184;28;20216;-81
2022/04/12 02:54:04;;;;;;;2.57;2.10;;;4.90;1.00;;;;;;5076037;28;20169;-80
2022/04/12 02:56:29;;;;;;;3.63;2.00;;;4.90;1.00;;;;;;5074319;28;20174;-83
2022/04/12 02:58:55;;;;;;;5.20;1.27;;;4.90;1.00;;;;;;5075790;28;20191;-82
2022/04/12 03:01:20;;;;;;;7.40;2.87;;;4.80;1.00;;;;;;5075972;28;20200;-83
2022/04/12 03:03:46;;;;;;;2.20;1.23;;;4.80;1.00;;;;;;5075844;28;20173;-82
2022/04/12 03:06:12;;;;;;;2.47;1.83;;;4.70;1.00;;;;;;5075697;28;20213;-80
2022/04/12 03:08:37;;;;;;;3.30;1.50;;;4.70;1.00;;;;;;5075692;28;20247;-80
2022/04/12 03:11:03;;;;;;;7.00;1.30;;;4.80;1.00;;;;;;5075386;28;20267;-80
2022/04/12 03:13:28;;;;;;;4.40;2.30;;;4.70;1.00;;;;;;5074346;28;20212;-82
2022/04/12 03:15:54;;;;;;;6.93;1.77;;;4.70;1.00;;;;;;5075654;28;20230;-80
2022/04/12 03:18:20;;;;;;;3.90;1.50;;;4.70;1.00;;;;;;5074473;28;20214;-82
2022/04/12 03:20:46;;;;;;;2.30;1.57;;;4.60;1.00;;;;;;5075578;28;20814;-83
2022/04/12 03:23:11;;;;;;;2.60;2.00;;;4.60;1.00;;;;;;5074281;28;20185;-82
2022/04/12 03:25:38;;;;;;;3.03;2.00;;;4.60;1.00;;;;;;5075533;28;20419;-84
2022/04/12 03:28:04;;;;;;;5.83;1.80;;;4.60;1.00;;;;;;5075117;28;20172;-81
2022/04/12 03:30:30;;;;;;;7.30;2.20;;;4.50;1.00;;;;;;5075377;28;20408;-81
2022/04/12 03:32:55;;;;;;;3.03;1.83;;;4.40;1.00;;;;;;5075301;28;20220;-81
2022/04/12 03:35:21;;;;;;;3.73;1.30;;;4.40;1.00;;;;;;5075317;28;20161;-83
2022/04/12 03:37:47;;;;;;;1.63;1.50;;;4.40;1.00;;;;;;5074044;28;20529;-80
2022/04/12 03:40:13;;;;;;;8.13;2.27;;;4.40;1.00;;;;;;5073848;28;20180;-82
2022/04/12 03:42:39;;;;;;;2.17;1.90;;;4.40;1.00;;;;;;5074860;28;20459;-81
2022/04/12 03:45:05;;;;;;;3.13;2.13;;;4.40;1.00;;;;;;5075093;28;20426;-81
2022/04/12 03:47:30;;;;;;;2.47;1.67;;;4.40;1.00;;;;;;5075136;28;20583;-79
2022/04/12 03:49:56;;;;;;;4.50;1.50;;;4.40;1.00;;;;;;5075060;28;20891;-82
2022/04/12 03:52:21;;;;;;;5.13;2.10;;;4.30;1.00;;;;;;5075028;28;20204;-80
2022/04/12 03:54:47;;;;;;;3.43;2.10;;;4.40;1.00;;;;;;5073625;28;20172;-80
2022/04/12 03:57:12;;;;;;;4.37;1.30;;;4.40;1.00;;;;;;5074595;28;20226;-79
2022/04/12 03:59:38;;;;;;;2.83;1.00;;;4.30;1.00;;;;;;5074761;28;20577;-79
2022/04/12 04:02:04;;;;;;;4.00;1.87;;;4.30;1.00;;;;;;5074313;28;20638;-79
2022/04/12 04:04:33;;;;;;;2.33;1.87;;;4.30;1.00;;;;;;5074633;28;20173;-79
2022/04/12 04:06:58;;;;;;;2.60;2.20;;;4.20;1.00;;;;;;5074529;28;20819;-80
2022/04/12 04:09:23;;;;;;;2.20;1.63;;;4.20;1.00;;;;;;5074797;28;20546;-80
2022/04/12 04:11:49;;;;;;;2.40;1.33;;;4.20;1.00;;;;;;5074015;28;20225;-82
2022/04/12 04:14:15;;;;;;;5.20;1.40;;;4.20;1.00;;;;;;5074476;28;20188;-82
2022/04/12 04:16:41;;;;;;;2.13;1.50;;;4.20;1.00;;;;;;5074666;28;20184;-80
2022/04/12 04:19:09;;;;;;;3.63;1.40;;;4.10;1.00;;;;;;5074464;28;20415;-83
2022/04/12 04:21:35;;;;;;;3.00;1.93;;;4.20;1.00;;;;;;5074409;28;20416;-81
2022/04/12 04:24:01;;;;;;;6.50;2.50;;;4.20;1.00;;;;;;5074383;28;20608;-82
2022/04/12 04:26:27;;;;;;;2.80;2.10;;;4.20;1.00;;;;;;5074039;28;20415;-83
2022/04/12 04:28:52;;;;;;;4.73;2.37;;;4.20;1.00;;;;;;5073061;28;20430;-83
2022/04/12 04:31:18;;;;;;;6.70;2.30;;;4.30;1.00;;;;;;5074097;28;20169;-81
2022/04/12 04:33:43;;;;;;;3.10;1.57;;;4.30;1.00;;;;;;5074194;28;20177;-82
2022/04/12 04:36:09;;;;;;;4.50;1.90;;;4.30;1.00;;;;;;5074221;28;20177;-84
2022/04/12 04:38:34;;;;;;;4.87;2.10;;;4.30;1.00;;;;;;5074246;28;20578;-82
2022/04/12 04:41:03;;;;;;;4.63;1.80;;;4.40;1.00;;;;;;5073578;28;20177;-81
2022/04/12 04:43:28;;;;;;;5.07;2.30;;;4.50;1.00;;;;;;5073917;28;20540;-82
2022/04/12 04:45:54;;;;;;;6.50;2.50;;;4.60;1.00;;;;;;5073864;28;20419;-83
2022/04/12 04:48:19;;;;;;;4.40;2.17;;;4.60;1.00;;;;;;5072556;28;20259;-81
2022/04/12 04:50:45;;;;;;;4.70;1.77;;;4.60;1.00;;;;;;5073881;28;20184;-81
2022/04/12 04:53:10;;;;;;;5.67;2.93;;;4.70;1.00;;;;;;5073751;28;20223;-84
2022/04/12 04:55:37;;;;;;;2.47;1.80;;;4.70;1.00;;;;;;5073607;28;20271;-83
2022/04/12 04:58:04;;;;;;;2.93;1.33;;;4.80;99.90;;;;;;5073449;28;20208;-82
2022/04/12 05:00:31;;;;;;;2.23;1.80;;;4.90;99.90;;;;;;5072444;28;20795;-81
2022/04/12 05:02:58;;;;;;;2.13;1.93;;;4.90;99.90;;;;;;5073572;28;20426;-81
2022/04/12 05:05:24;;;;;;;3.90;1.70;;;5.00;54.00;;;;;;5073501;28;20460;-81
2022/04/12 05:07:52;;;;;;;2.93;2.37;;;5.00;97.10;;;;;;5071862;28;20897;-81
2022/04/12 05:10:26;;;;;;;4.40;2.47;;;5.00;99.90;;;;;;5072197;28;20426;-83
2022/04/12 05:12:51;;;;;;;5.17;1.90;;;5.00;99.90;;;;;;5072398;28;20459;-82
2022/04/12 05:15:17;;;;;;;3.30;2.17;;;5.10;1.00;;;;;;5072052;28;20483;-82
2022/04/12 05:17:53;;;;;;;4.77;3.40;;;5.20;99.90;;;;;;5073392;28;20173;-82
2022/04/12 05:20:24;;;;;;;7.33;2.97;;;5.20;99.90;;;;;;5073222;28;20414;-82
2022/04/12 05:22:50;;;;;;;9.23;4.30;;;5.30;1.00;;;;;;5073426;28;20416;-82
2022/04/12 05:25:16;;;;;;;3.67;2.17;;;5.40;1.00;;;;;;5072013;28;20416;-81
2022/04/12 05:27:43;;;;;;;5.17;3.10;;;5.40;92.10;;;;;;5072917;28;20660;-82
2022/04/12 05:30:10;;;;;;;5.50;2.10;;;5.50;88.80;;;;;;5073114;28;20161;-82
2022/04/12 05:32:36;;;;;;;8.33;2.50;;;5.50;99.90;;;;;;5073035;28;20545;-81
2022/04/12 05:35:04;;;;;;;2.60;1.23;;;5.60;77.50;;;;;;5073132;28;20416;-80
2022/04/12 05:37:31;;;;;;;3.27;2.10;;;5.60;99.90;;;;;;5071712;28;20935;-81
2022/04/12 05:39:56;;;;;;;2.87;1.93;;;5.70;99.90;;;;;;5072966;28;20411;-81
2022/04/12 05:42:23;;;;;;;3.90;3.03;;;5.80;1.00;;;;;;5072562;28;20407;-82
2022/04/12 05:44:49;;;;;;;5.30;2.20;;;5.80;1.00;;;;;;5072841;28;20170;-81
2022/04/12 05:47:14;;;;;;;7.07;2.77;;;6.00;1.00;;;;;;5072906;28;20428;-81
2022/04/12 05:49:40;;;;;;;2.40;1.70;;;6.00;2.10;;;;;;5073133;28;20524;-82
2022/04/12 05:52:06;;;;;;;4.07;2.10;;;6.20;99.90;;;;;;5072681;28;20209;-80
2022/04/12 05:54:31;;;;;;;4.80;2.67;;;6.00;99.90;;;;;;5054638;28;20661;-82
2022/04/12 05:56:57;;;;;;;5.43;2.10;;;6.20;99.90;;;;;;5072309;28;20428;-82
2022/04/12 05:59:25;;;;;;;6.23;2.00;;;6.30;89.90;;;;;;5072666;28;20169;-81
2022/04/12 06:01:50;;;;;;;6.27;2.33;;;6.30;1.00;;;;;;5071360;28;20534;-81
2022/04/12 06:04:16;;;;;;;6.57;1.93;;;6.40;1.00;;;;;;5071307;28;20416;-81
2022/04/12 06:06:44;;;;;;;2.17;1.40;;;6.50;99.90;;;;;;5072364;28;20252;-81
2022/04/12 06:09:10;;;;;;;2.80;1.60;;;6.50;99.90;;;;;;5072563;28;20173;-81
2022/04/12 06:11:36;;;;;;;2.33;1.60;;;6.60;99.90;;;;;;5072228;28;20413;-81
2022/04/12 06:14:01;;;;;;;3.40;1.60;;;6.50;1.00;;;;;;5072801;28;20665;-83
2022/04/12 06:16:27;;;;;;;3.77;2.03;;;6.50;1.00;;;;;;5072645;28;20209;-82
2022/04/12 06:18:53;;;;;;;4.33;2.10;;;6.60;1.00;;;;;;5072551;28;20595;-81
2022/04/12 06:21:19;;;;;;;2.87;1.93;;;6.70;1.00;;;;;;5072656;28;20663;-81
2022/04/12 06:23:44;;;;;;;2.53;1.70;;;7.00;1.00;;;;;;5072608;28;20411;-81
2022/04/12 06:26:10;;;;;;;3.30;1.53;;;7.20;1.00;;;;;;5076351;28;20615;-84
2022/04/12 06:28:36;;;;;;;4.70;2.10;;;7.20;99.90;;;;;;5076619;28;20192;-82
2022/04/12 06:31:01;;;;;;;3.60;1.80;;;7.20;1.00;;;;;;5076601;28;20679;-81
2022/04/12 06:33:27;;;;;;;2.50;1.03;;;7.30;1.00;;;;;;5076547;28;20218;-82
2022/04/12 06:35:53;;;;;;;4.50;2.00;;;7.40;99.90;;;;;;5076487;28;20162;-82
2022/04/12 06:38:18;;;;;;;4.63;1.63;;;7.50;99.90;;;;;;5076529;28;20533;-81
2022/04/12 06:40:45;;;;;;;3.40;1.73;;;7.60;1.00;;;;;;5076072;28;20178;-83
2022/04/12 06:43:11;;;;;;;2.47;2.17;;;7.60;1.00;;;;;;5076328;28;20178;-82
2022/04/12 06:45:37;;;;;;;4.73;2.33;;;7.90;1.00;;;;;;5076153;28;20928;-82
2022/04/12 06:48:03;;;;;;;3.10;1.73;;;8.00;1.00;;;;;;5076073;28;20495;-82
2022/04/12 06:50:29;;;;;;;2.17;1.50;;;8.00;99.90;;;;;;5075015;28;20517;-82
2022/04/12 06:52:56;;;;;;;4.97;2.03;;;8.10;99.90;;;;;;5076093;28;20522;-82
2022/04/12 06:55:22;;;;;;;3.97;2.20;;;8.00;99.90;;;;;;5074466;28;20198;-82
2022/04/12 06:57:48;;;;;;;4.00;2.00;;;7.90;99.90;;;;;;5075973;28;20425;-83
2022/04/12 07:00:16;;;;;;;4.23;2.53;;;8.00;99.90;;;;;;5075940;28;20413;-83
2022/04/12 07:02:44;;;;;;;3.27;2.10;;;8.10;99.90;;;;;;5075829;28;20201;-82
2022/04/12 07:05:10;;;;;;;5.47;2.47;;;8.10;99.90;;;;;;5075809;28;20420;-83
2022/04/12 07:07:37;;;;;;;3.37;1.70;;;8.00;99.90;;;;;;5075665;28;20465;-83
2022/04/12 07:10:11;;;;;;;3.63;1.33;;;8.20;99.90;;;;;;5075646;28;20513;-83
2022/04/12 07:12:40;;;;;;;3.67;2.37;;;8.20;99.90;;;;;;5075289;28;20557;-83
2022/04/12 07:15:06;;;;;;;3.60;1.53;;;8.30;99.90;;;;;;5075736;28;20560;-83
2022/04/12 07:17:32;;;;;;;6.10;1.70;;;8.50;99.90;;;;;;5075586;28;20434;-83
2022/04/12 07:19:57;;;;;;;2.63;0.93;;;8.70;99.90;;;;;;5075592;28;20901;-83
2022/04/12 07:22:24;;;;;;;5.40;2.23;;;8.60;99.90;;;;;;5075567;28;20642;-82
2022/04/12 07:24:50;;;;;;;3.37;1.83;;;8.60;99.90;;;;;;5075449;28;20637;-83
2022/04/12 07:27:15;;;;;;;5.10;1.37;;;8.90;99.90;;;;;;5074998;28;20476;-82
2022/04/12 07:29:41;;;;;;;2.20;1.67;;;9.30;99.90;;;;;;5074124;28;20181;-81
2022/04/12 07:32:07;;;;;;;5.10;1.87;;;9.40;99.90;;;;;;5075220;28;20738;-83
2022/04/12 07:34:32;;;;;;;3.63;1.50;;;9.40;99.90;;;;;;5075300;28;20837;-82
2022/04/12 07:36:58;;;;;;;2.00;1.23;;;9.60;99.90;;;;;;5074331;28;20259;-82
2022/04/12 07:39:24;;;;;;;7.63;2.10;;;9.80;99.90;;;;;;5075188;28;20179;-82
2022/04/12 07:41:51;;;;;;;5.40;1.83;;;9.80;99.90;;;;;;5074903;28;20533;-83
2022/04/12 07:44:18;;;;;;;2.40;1.40;;;9.70;99.90;;;;;;5073784;28;20861;-83
2022/04/12 07:46:47;;;;;;;2.13;1.40;;;9.90;99.90;;;;;;5075165;28;20440;-83
2022/04/12 07:49:15;;;;;;;3.37;1.70;;;10.20;99.90;;;;;;5073710;28;20451;-82
2022/04/12 07:51:44;;;;;;;3.87;1.53;;;10.70;98.60;;;;;;5074864;28;20421;-84
2022/04/12 07:54:09;;;;;;;3.87;1.40;;;10.60;61.00;;;;;;5075020;28;20434;-84
2022/04/12 07:56:35;;;;;;;4.00;2.10;;;11.30;38.90;;;;;;5074483;28;20416;-83
2022/04/12 07:59:01;;;;;;;2.13;1.10;;;11.70;26.70;;;;;;5074970;28;20252;-83
2022/04/12 08:01:27;;;;;;;3.03;1.87;;;11.90;19.60;;;;;;5074823;28;20244;-80
2022/04/12 08:03:53;;;;;;;5.73;1.83;;;11.40;13.90;;;;;;5074815;28;20520;-83
2022/04/12 08:06:19;;;;;;;6.10;1.33;;;11.50;13.50;;;;;;5074563;28;20224;-81
2022/04/12 08:08:44;;;;;;;2.53;1.30;;;11.80;7.40;;;;;;5074595;28;20418;-81
2022/04/12 08:11:10;;;;;;;4.03;2.30;;;12.30;9.30;;;;;;5074228;28;20176;-80
2022/04/12 08:13:35;;;;;;;1.93;0.90;;;12.40;5.20;;;;;;5074502;28;20232;-80
2022/04/12 08:16:04;;;;;;;3.10;1.53;;;12.40;1.00;;;;;;5074563;28;20172;-80
2022/04/12 08:18:31;;;;;;;5.70;1.70;;;12.60;1.00;;;;;;5074531;28;20255;-82
2022/04/12 08:20:59;;;;;;;5.57;1.80;;;13.10;1.00;;;;;;5074459;28;20420;-82
2022/04/12 08:23:25;;;;;;;4.10;2.27;;;13.20;1.00;;;;;;5074339;28;20425;-81
2022/04/12 08:25:52;;;;;;;3.00;1.47;;;12.60;1.00;;;;;;5073920;28;20422;-81
2022/04/12 08:28:17;;;;;;;3.27;1.50;;;12.30;1.00;;;;;;5074248;28;20186;-81
2022/04/12 08:30:43;;;;;;;2.80;1.40;;;12.30;1.00;;;;;;5072946;28;20428;-81
2022/04/12 08:33:09;;;;;;;2.87;1.00;;;13.10;1.00;;;;;;5074271;28;20553;-81
2022/04/12 08:35:34;;;;;;;2.93;1.87;;;13.80;1.00;;;;;;5074246;28;20182;-81
2022/04/12 08:38:00;;;;;;;5.87;1.60;;;15.10;1.00;;;;;;5074148;28;20177;-79
2022/04/12 08:40:26;;;;;;;4.00;1.93;;;15.50;1.00;;;;;;5073769;28;20262;-82
2022/04/12 08:42:54;;;;;;;5.97;2.10;;;15.70;1.00;;;;;;5073973;28;20923;-81
2022/04/12 08:45:20;;;;;;;3.00;1.37;;;15.80;1.00;;;;;;5070943;28;20410;-82
2022/04/12 08:47:45;;;;;;;2.90;1.80;;;16.30;1.00;;;;;;5054858;28;21165;-82
2022/04/12 08:50:11;;;;;;;3.17;1.53;;;17.10;1.00;;;;;;5072955;28;20252;-78
2022/04/12 08:52:37;;;;;;;2.87;1.63;;;17.90;1.00;;;;;;5072803;28;20210;-84
2022/04/12 08:55:04;;;;;;;2.87;1.80;;;17.60;1.00;;;;;;5070796;28;20260;-86
2022/04/12 08:57:29;;;;;;;2.63;1.80;;;18.10;1.00;;;;;;5066320;28;20482;-81
2022/04/12 08:59:55;;;;;;;4.20;2.00;;;19.00;1.00;;;;;;5053361;28;20424;-85
2022/04/12 09:02:24;;;;;;;5.03;1.60;;;18.80;1.00;;;;;;5053431;28;20178;-84
2022/04/12 09:04:49;;;;;;;4.40;1.93;;;19.00;1.00;;;;;;5059690;28;20177;-82
2022/04/12 09:07:15;;;;;;;4.00;2.10;;;19.20;1.00;;;;;;5073001;28;20460;-83
2022/04/12 09:09:42;;;;;;;4.10;1.37;;;18.60;1.00;;;;;;5073024;28;20261;-82
2022/04/12 09:12:13;;;;;;;5.60;1.73;;;19.10;1.00;;;;;;5071450;28;20568;-81
2022/04/12 09:14:39;;;;;;;4.83;2.80;;;18.80;1.00;;;;;;5073069;28;20447;-83
2022/04/12 09:17:08;;;;;;;5.13;1.87;;;18.60;1.00;;;;;;5072936;28;20408;-82
2022/04/12 09:19:38;;;;;;;6.50;3.00;;;17.50;1.00;;;;;;5071550;28;20425;-85
2022/04/12 09:22:10;;;;;;;3.23;2.30;;;17.70;1.00;;;;;;5072622;28;20418;-84
2022/04/12 09:24:37;;;;;;;4.83;2.10;;;18.20;1.00;;;;;;5076655;28;20919;-83
2022/04/12 09:27:03;;;;;;;3.33;2.27;;;17.60;1.00;;;;;;5082243;28;20411;-82
2022/04/12 09:29:30;;;;;;;4.20;2.30;;;18.60;1.00;;;;;;5086120;28;20815;-84
2022/04/12 09:31:56;;;;;;;5.03;2.37;;;17.80;1.00;;;;;;5078279;28;20207;-84
2022/04/12 09:34:23;;;;;;;4.70;2.07;;;17.90;1.00;;;;;;5054640;28;20918;-82
2022/04/12 09:36:49;;;;;;;3.03;1.93;;;18.00;1.00;;;;;;5069882;28;20455;-82
2022/04/12 09:39:19;;;;;;;3.43;3.03;;;16.70;1.00;;;;;;5072348;28;20453;-83
2022/04/12 09:41:47;;;;;;;3.80;2.40;;;15.80;1.00;;;;;;5072099;28;20189;-83
2022/04/12 09:44:17;;;;;;;3.60;2.73;;;16.10;1.00;;;;;;5072516;28;20765;-85
2022/04/12 09:46:43;;;;;;;3.30;2.23;;;16.30;1.00;;;;;;5070959;28;20510;-84
2022/04/12 09:49:09;;;;;;;4.20;2.10;;;15.90;1.00;;;;;;5069430;28;20832;-82
2022/04/12 09:51:38;;;;;;;4.23;2.90;;;16.10;1.00;;;;;;5072606;28;20509;-82
2022/04/12 09:54:08;;;;;;;2.60;1.80;;;16.30;1.00;;;;;;5072155;28;20432;-84
2022/04/12 09:56:36;;;;;;;4.87;3.40;;;17.20;1.00;;;;;;5054173;28;20552;-80
2022/04/12 09:59:07;;;;;;;4.00;2.53;;;17.30;1.00;;;;;;5072000;28;20798;-80
2022/04/12 10:01:39;;;;;;;4.93;2.23;;;16.90;1.00;;;;;;5072565;28;20796;-82
2022/04/12 10:04:08;;;;;;;4.00;2.60;;;16.50;1.00;;;;;;5072239;28;21091;-82
2022/04/12 10:06:39;;;;;;;7.43;2.63;;;16.00;1.00;;;;;;5054583;28;20557;-82
2022/04/12 10:09:07;;;;;;;5.03;2.97;;;16.50;1.00;;;;;;5086892;28;20934;-81
2022/04/12 10:11:33;;;;;;;3.00;2.20;;;16.80;1.00;;;;;;5091528;28;20478;-85
2022/04/12 10:14:01;;;;;;;4.73;2.10;;;16.10;1.00;;;;;;5073305;28;20772;-81
2022/04/12 10:16:27;;;;;;;4.63;2.73;;;15.90;1.00;;;;;;5053919;28;20411;-84
2022/04/12 10:18:54;;;;;;;5.47;3.70;;;16.10;1.00;;;;;;5071430;28;20429;-85
2022/04/12 10:21:22;;;;;;;4.83;4.00;;;16.50;1.00;;;;;;5072241;28;20404;-79
2022/04/12 10:23:56;;;;;;;6.13;2.23;;;16.20;1.00;;;;;;5072156;28;20534;-80
2022/04/12 10:26:24;;;;;;;5.37;3.77;;;16.30;1.00;;;;;;5072096;28;20422;-83
2022/04/12 10:29:00;;;;;;;5.07;2.77;;;15.60;1.00;;;;;;5072015;28;20882;-80
2022/04/12 10:31:30;;;;;;;7.07;3.30;;;15.30;1.00;;;;;;5072027;28;20414;-79
2022/04/12 10:34:04;;;;;;;6.27;2.47;;;15.40;1.00;;;;;;5072169;28;20435;-80
2022/04/12 10:36:54;;;;;;;6.97;3.70;;;15.80;1.00;;;;;;5072178;28;20412;-81
2022/04/12 10:39:21;;;;;;;6.60;4.17;;;15.60;1.00;;;;;;5072068;28;20411;-79
2022/04/12 10:41:50;;;;;;;4.07;2.37;;;16.00;1.00;;;;;;5071743;28;20770;-81
2022/04/12 10:44:20;;;;;;;4.23;2.77;;;15.40;1.00;;;;;;5071885;28;20771;-82
2022/04/12 10:46:47;;;;;;;5.57;3.43;;;15.30;1.00;;;;;;5054057;28;20446;-80
2022/04/12 10:49:16;;;;;;;5.67;3.27;;;15.70;1.00;;;;;;5071970;28;20925;-79
2022/04/12 10:51:42;;;;;;;5.40;3.60;;;15.80;1.00;;;;;;5071976;28;20418;-79
2022/04/12 10:54:35;;;;;;;6.23;3.63;;;16.40;1.00;;;;;;5072192;28;20929;-80
2022/04/12 10:57:20;;;;;;;5.80;3.50;;;16.20;1.00;;;;;;5071633;28;20173;-81
2022/04/12 11:00:08;;;;;;;4.93;3.70;;;17.80;1.00;;;;;;5054033;28;20418;-79
2022/04/12 11:02:42;;;;;;;5.83;4.30;;;19.20;1.00;;;;;;5071851;28;20426;-79
2022/04/12 11:05:37;;;;;;;5.60;3.93;;;19.80;1.00;;;;;;5071822;28;20410;-79
2022/04/12 11:08:34;;;;;;;7.70;4.07;;;20.30;1.00;;;;;;5071544;28;20414;-79
2022/04/12 11:10:59;;;;;;;5.30;3.60;;;19.90;1.00;;;;;;5071700;28;20420;-79
2022/04/12 11:13:28;;;;;;;6.93;4.10;;;19.40;1.00;;;;;;5075128;28;20973;-80
2022/04/12 11:15:56;;;;;;;5.70;4.17;;;19.00;1.00;;;;;;5075350;28;20617;-79
2022/04/12 11:18:21;;;;;;;5.57;3.87;;;18.50;1.00;;;;;;5075145;28;20409;-80
2022/04/12 11:21:02;;;;;;;6.00;4.63;;;19.00;1.00;;;;;;5075162;28;20422;-79
2022/04/12 11:23:50;;;;;;;6.80;4.90;;;19.30;1.00;;;;;;5075038;28;20233;-79
2022/04/12 11:26:38;;;;;;;5.80;4.10;;;19.50;1.00;;;;;;5074549;28;20775;-79
2022/04/12 11:29:11;;;;;;;7.77;5.63;;;19.70;1.00;;;;;;5075047;28;20467;-79
2022/04/12 11:31:53;;;;;;;6.67;5.13;;;18.30;1.00;;;;;;5074984;28;20943;-79
2022/04/12 11:34:20;;;;;;;5.80;4.37;;;18.30;1.00;;;;;;5074936;28;20422;-80
2022/04/12 11:36:50;;;;;;;5.70;4.50;;;19.80;1.00;;;;;;5074868;28;20417;-81
2022/04/12 11:39:26;;;;;;;6.27;4.20;;;19.00;1.00;;;;;;5074935;28;20422;-79
2022/04/12 11:42:00;;;;;;;6.80;4.50;;;19.10;1.00;;;;;;5074337;28;20438;-80
2022/04/12 11:44:25;;;;;;;5.57;3.80;;;19.60;1.00;;;;;;5074832;28;20820;-80
2022/04/12 11:46:56;;;;;;;6.13;4.80;;;20.20;1.00;;;;;;5074519;28;20396;-80
2022/04/12 11:49:30;;;;;;;6.80;4.50;;;20.80;1.00;;;;;;5074495;28;20169;-79
2022/04/12 11:51:59;;;;;;;5.80;4.20;;;20.80;1.00;;;;;;5073819;28;20805;-80
2022/04/12 11:54:34;;;;;;;8.20;5.53;;;20.50;1.00;;;;;;5074565;28;20903;-80
2022/04/12 11:57:10;;;;;;;6.13;4.47;;;21.20;1.00;;;;;;5056584;28;20423;-80
2022/04/12 11:59:46;;;;;;;5.70;4.77;;;20.70;1.00;;;;;;5074394;28;20419;-81
2022/04/12 12:02:14;;;;;;;6.97;4.80;;;20.30;1.00;;;;;;5074314;28;20411;-81
2022/04/12 12:04:53;;;;;;;6.70;4.97;;;21.20;1.00;;;;;;5056318;28;20420;-80
2022/04/12 12:07:19;;;;;;;6.83;5.90;;;21.80;1.00;;;;;;5074106;28;20519;-80
2022/04/12 12:09:54;;;;;;;10.80;4.87;;;19.80;1.00;;;;;;5074035;28;20974;-79
2022/04/12 12:12:20;;;;;;;5.83;4.83;;;21.00;1.00;;;;;;5074396;28;20586;-81
2022/04/12 12:14:46;;;;;;;6.83;4.80;;;20.80;1.00;;;;;;5074604;28;20939;-80
2022/04/12 12:17:18;;;;;;;5.10;4.33;;;21.10;1.00;;;;;;5074494;28;20414;-80
2022/04/12 12:19:47;;;;;;;6.77;5.10;;;21.30;1.00;;;;;;5074807;28;20181;-80
2022/04/12 12:22:14;;;;;;;8.50;5.87;;;20.80;1.00;;;;;;5074420;28;20437;-80
2022/04/12 12:24:57;;;;;;;6.23;5.63;;;21.00;1.00;;;;;;5074235;28;20450;-80
2022/04/12 12:27:29;;;;;;;8.00;4.40;;;20.80;1.00;;;;;;5074866;28;20438;-80
2022/04/12 12:30:05;;;;;;;7.67;5.20;;;20.90;1.00;;;;;;5074366;28;20403;-81
2022/04/12 12:32:38;;;;;;;6.07;4.60;;;21.00;1.00;;;;;;5074513;28;20467;-81
2022/04/12 12:35:09;;;;;;;6.73;5.40;;;21.00;1.00;;;;;;5074590;28;20437;-80
2022/04/12 12:37:37;;;;;;;9.63;5.50;;;21.80;1.00;;;;;;5074576;28;20484;-81
2022/04/12 12:40:17;;;;;;;5.40;4.57;;;20.90;1.00;;;;;;5074173;28;20446;-79
2022/04/12 12:42:43;;;;;;;7.57;4.80;;;20.80;1.00;;;;;;5074378;28;20411;-81
2022/04/12 12:45:19;;;;;;;4.87;4.00;;;21.20;1.00;;;;;;5074122;28;20416;-79
2022/04/12 12:47:48;;;;;;;5.33;4.57;;;21.00;1.00;;;;;;5058022;28;20427;-79
2022/04/12 12:50:15;;;;;;;9.20;4.70;;;20.30;1.00;;;;;;5074073;28;20407;-79
2022/04/12 12:52:43;;;;;;;9.77;6.37;;;21.00;1.00;;;;;;5073919;28;20507;-81
2022/04/12 12:55:23;;;;;;;7.07;4.87;;;20.10;1.00;;;;;;5073734;28;20403;-79
2022/04/12 12:57:53;;;;;;;5.60;4.43;;;20.90;1.00;;;;;;5074230;28;20781;-80
2022/04/12 13:00:21;;;;;;;7.30;4.70;;;20.70;1.00;;;;;;5073948;28;20545;-80
2022/04/12 13:02:47;;;;;;;6.97;5.23;;;21.40;1.00;;;;;;5073655;28;20489;-80
2022/04/12 13:05:18;;;;;;;5.23;4.73;;;21.80;1.00;;;;;;5074248;28;20419;-79